Terminal Aerodrome Forecast
Issued by NWS Twin Cities, MN

Home | Current Version | Previous Version | Graphics & Text | Print | Product List | Glossary On
Versions: 1 2 3 4 5 6 7 8 9 10 11 12 13 14 15 16 17 18 19 20 21 22 23 24 25 26 27
000
FTUS43 KMPX 051140
TAFMSP
TAF
KMSP 051140Z 0512/0618 16007KT P6SM SCT250
     FM051600 17012G18KT P6SM BKN250
     FM052000 17015G23KT P6SM VCSH SCT050 BKN150
     FM060100 16012KT P6SM BKN050 OVC120
     FM060600 15012KT 5SM -SHRA OVC045
      TEMPO 0606/0610 2SM TSRA BKN020CB
     FM061500 29011KT 6SM -SHRA SCT020 OVC035=

USA.gov is the U.S. government's official web portal to all federal, state and local government web resources and services.